sensor_id;sensor_type;location;lat;lon;timestamp;temperature;humidity
30678;DHT22;17437;47.188;8.896;2023-03-03T00:00:06;3.00;99.90
30678;DHT22;17437;47.188;8.896;2023-03-03T00:02:38;2.90;99.90
30678;DHT22;17437;47.188;8.896;2023-03-03T00:05:10;3.00;99.90
30678;DHT22;17437;47.188;8.896;2023-03-03T00:07:44;3.00;99.90
30678;DHT22;17437;47.188;8.896;2023-03-03T00:10:18;3.00;99.90
30678;DHT22;17437;47.188;8.896;2023-03-03T00:12:50;3.00;99.90
30678;DHT22;17437;47.188;8.896;2023-03-03T00:15:23;3.00;99.90
30678;DHT22;17437;47.188;8.896;2023-03-03T00:17:56;3.00;99.90
30678;DHT22;17437;47.188;8.896;2023-03-03T00:20:33;3.10;99.90
30678;DHT22;17437;47.188;8.896;2023-03-03T00:23:19;3.10;99.90
30678;DHT22;17437;47.188;8.896;2023-03-03T00:25:54;3.10;99.90
30678;DHT22;17437;47.188;8.896;2023-03-03T00:28:28;3.10;99.90
30678;DHT22;17437;47.188;8.896;2023-03-03T00:31:00;3.10;99.90
30678;DHT22;17437;47.188;8.896;2023-03-03T00:33:37;3.10;99.90
30678;DHT22;17437;47.188;8.896;2023-03-03T00:36:33;3.10;99.90
30678;DHT22;17437;47.188;8.896;2023-03-03T00:39:17;3.10;99.90
30678;DHT22;17437;47.188;8.896;2023-03-03T00:41:51;3.10;99.90
30678;DHT22;17437;47.188;8.896;2023-03-03T00:44:43;3.10;99.90
30678;DHT22;17437;47.188;8.896;2023-03-03T00:47:25;3.00;99.90
30678;DHT22;17437;47.188;8.896;2023-03-03T00:53:27;2.80;99.90
30678;DHT22;17437;47.188;8.896;2023-03-03T00:55:58;2.70;99.90
30678;DHT22;17437;47.188;8.896;2023-03-03T00:58:30;2.80;99.90
30678;DHT22;17437;47.188;8.896;2023-03-03T01:01:02;2.80;99.90
30678;DHT22;17437;47.188;8.896;2023-03-03T01:03:33;2.90;99.90
30678;DHT22;17437;47.188;8.896;2023-03-03T01:06:07;3.00;99.90
30678;DHT22;17437;47.188;8.896;2023-03-03T01:08:39;3.00;99.90
30678;DHT22;17437;47.188;8.896;2023-03-03T01:11:15;3.10;99.90
30678;DHT22;17437;47.188;8.896;2023-03-03T01:13:47;3.10;99.90
30678;DHT22;17437;47.188;8.896;2023-03-03T01:16:20;3.10;99.90
30678;DHT22;17437;47.188;8.896;2023-03-03T01:18:52;3.10;99.90
30678;DHT22;17437;47.188;8.896;2023-03-03T01:21:23;3.10;99.90
30678;DHT22;17437;47.188;8.896;2023-03-03T01:23:55;3.10;99.90
30678;DHT22;17437;47.188;8.896;2023-03-03T01:26:26;3.10;99.90
30678;DHT22;17437;47.188;8.896;2023-03-03T01:28:58;3.10;99.90
30678;DHT22;17437;47.188;8.896;2023-03-03T01:31:29;3.00;99.90
30678;DHT22;17437;47.188;8.896;2023-03-03T01:34:01;3.00;99.90
30678;DHT22;17437;47.188;8.896;2023-03-03T01:36:33;3.00;99.90
30678;DHT22;17437;47.188;8.896;2023-03-03T01:39:06;3.00;99.90
30678;DHT22;17437;47.188;8.896;2023-03-03T01:41:38;2.80;99.90
30678;DHT22;17437;47.188;8.896;2023-03-03T01:44:13;2.80;99.90
30678;DHT22;17437;47.188;8.896;2023-03-03T01:46:51;2.70;99.90
30678;DHT22;17437;47.188;8.896;2023-03-03T01:49:25;2.70;99.90
30678;DHT22;17437;47.188;8.896;2023-03-03T01:51:59;2.60;99.90
30678;DHT22;17437;47.188;8.896;2023-03-03T01:54:35;2.50;99.90
30678;DHT22;17437;47.188;8.896;2023-03-03T01:57:09;2.40;99.90
30678;DHT22;17437;47.188;8.896;2023-03-03T01:59:43;2.30;99.90
30678;DHT22;17437;47.188;8.896;2023-03-03T02:02:16;2.30;99.90
30678;DHT22;17437;47.188;8.896;2023-03-03T02:04:49;2.20;99.90
30678;DHT22;17437;47.188;8.896;2023-03-03T02:07:22;2.20;99.90
30678;DHT22;17437;47.188;8.896;2023-03-03T02:09:57;2.20;99.90
30678;DHT22;17437;47.188;8.896;2023-03-03T02:12:32;2.20;99.90
30678;DHT22;17437;47.188;8.896;2023-03-03T02:15:16;2.20;99.90
30678;DHT22;17437;47.188;8.896;2023-03-03T02:17:49;2.10;99.90
30678;DHT22;17437;47.188;8.896;2023-03-03T02:20:34;2.20;99.90
30678;DHT22;17437;47.188;8.896;2023-03-03T02:23:08;2.20;99.90
30678;DHT22;17437;47.188;8.896;2023-03-03T02:25:46;2.30;99.90
30678;DHT22;17437;47.188;8.896;2023-03-03T02:28:18;2.30;99.90
30678;DHT22;17437;47.188;8.896;2023-03-03T02:30:49;2.30;99.90
30678;DHT22;17437;47.188;8.896;2023-03-03T02:33:20;2.40;99.90
30678;DHT22;17437;47.188;8.896;2023-03-03T02:35:52;2.40;99.90
30678;DHT22;17437;47.188;8.896;2023-03-03T02:38:28;2.40;99.90
30678;DHT22;17437;47.188;8.896;2023-03-03T02:41:03;2.40;99.90
30678;DHT22;17437;47.188;8.896;2023-03-03T02:43:40;2.30;99.90
30678;DHT22;17437;47.188;8.896;2023-03-03T02:46:12;2.30;99.90
30678;DHT22;17437;47.188;8.896;2023-03-03T02:48:43;2.30;99.90
30678;DHT22;17437;47.188;8.896;2023-03-03T02:51:15;2.30;99.90
30678;DHT22;17437;47.188;8.896;2023-03-03T02:53:46;2.40;99.90
30678;DHT22;17437;47.188;8.896;2023-03-03T02:56:17;2.40;99.90
30678;DHT22;17437;47.188;8.896;2023-03-03T02:58:49;2.50;99.90
30678;DHT22;17437;47.188;8.896;2023-03-03T03:01:22;2.60;99.90
30678;DHT22;17437;47.188;8.896;2023-03-03T03:03:53;2.60;99.90
30678;DHT22;17437;47.188;8.896;2023-03-03T03:06:25;2.60;99.90
30678;DHT22;17437;47.188;8.896;2023-03-03T03:08:57;2.60;99.90
30678;DHT22;17437;47.188;8.896;2023-03-03T03:11:29;2.50;99.90
30678;DHT22;17437;47.188;8.896;2023-03-03T03:14:01;2.60;99.90
30678;DHT22;17437;47.188;8.896;2023-03-03T03:16:33;2.50;99.90
30678;DHT22;17437;47.188;8.896;2023-03-03T03:19:06;2.50;99.90
30678;DHT22;17437;47.188;8.896;2023-03-03T03:21:38;2.60;99.90
30678;DHT22;17437;47.188;8.896;2023-03-03T03:24:09;2.60;99.90
30678;DHT22;17437;47.188;8.896;2023-03-03T03:26:41;2.60;99.90
30678;DHT22;17437;47.188;8.896;2023-03-03T03:29:13;2.60;99.90
30678;DHT22;17437;47.188;8.896;2023-03-03T03:31:45;2.70;99.90
30678;DHT22;17437;47.188;8.896;2023-03-03T03:34:16;2.70;99.90
30678;DHT22;17437;47.188;8.896;2023-03-03T03:36:47;2.70;99.90
30678;DHT22;17437;47.188;8.896;2023-03-03T03:39:19;2.70;99.90
30678;DHT22;17437;47.188;8.896;2023-03-03T03:41:51;2.80;99.90
30678;DHT22;17437;47.188;8.896;2023-03-03T03:44:22;2.80;99.90
30678;DHT22;17437;47.188;8.896;2023-03-03T03:46:55;2.80;99.90
30678;DHT22;17437;47.188;8.896;2023-03-03T03:49:26;2.80;99.90
30678;DHT22;17437;47.188;8.896;2023-03-03T03:51:58;2.80;99.90
30678;DHT22;17437;47.188;8.896;2023-03-03T03:54:29;2.90;99.90
30678;DHT22;17437;47.188;8.896;2023-03-03T03:57:01;2.90;99.90
30678;DHT22;17437;47.188;8.896;2023-03-03T03:59:33;2.90;99.90
30678;DHT22;17437;47.188;8.896;2023-03-03T04:02:05;2.80;99.90
30678;DHT22;17437;47.188;8.896;2023-03-03T04:04:36;2.70;99.90
30678;DHT22;17437;47.188;8.896;2023-03-03T04:07:08;2.70;99.90
30678;DHT22;17437;47.188;8.896;2023-03-03T04:09:41;2.60;99.90
30678;DHT22;17437;47.188;8.896;2023-03-03T04:12:12;2.60;99.90
30678;DHT22;17437;47.188;8.896;2023-03-03T04:14:44;2.70;99.90
30678;DHT22;17437;47.188;8.896;2023-03-03T04:17:18;2.80;99.90
30678;DHT22;17437;47.188;8.896;2023-03-03T04:19:52;2.80;99.90
30678;DHT22;17437;47.188;8.896;2023-03-03T04:22:24;2.80;99.90
30678;DHT22;17437;47.188;8.896;2023-03-03T04:24:56;2.80;99.90
30678;DHT22;17437;47.188;8.896;2023-03-03T04:27:29;2.80;99.90
30678;DHT22;17437;47.188;8.896;2023-03-03T04:30:00;2.70;99.90
30678;DHT22;17437;47.188;8.896;2023-03-03T04:32:32;2.60;99.90
30678;DHT22;17437;47.188;8.896;2023-03-03T04:35:05;2.60;99.90
30678;DHT22;17437;47.188;8.896;2023-03-03T04:37:39;2.60;99.90
30678;DHT22;17437;47.188;8.896;2023-03-03T04:40:11;2.60;99.90
30678;DHT22;17437;47.188;8.896;2023-03-03T04:42:46;2.60;99.90
30678;DHT22;17437;47.188;8.896;2023-03-03T04:45:18;2.60;99.90
30678;DHT22;17437;47.188;8.896;2023-03-03T04:47:50;2.70;99.90
30678;DHT22;17437;47.188;8.896;2023-03-03T04:50:22;2.70;99.90
30678;DHT22;17437;47.188;8.896;2023-03-03T04:52:54;2.70;99.90
30678;DHT22;17437;47.188;8.896;2023-03-03T04:55:26;2.70;99.90
30678;DHT22;17437;47.188;8.896;2023-03-03T04:57:59;2.70;99.90
30678;DHT22;17437;47.188;8.896;2023-03-03T05:00:31;2.70;99.90
30678;DHT22;17437;47.188;8.896;2023-03-03T05:03:03;2.70;99.90
30678;DHT22;17437;47.188;8.896;2023-03-03T05:05:34;2.70;99.90
30678;DHT22;17437;47.188;8.896;2023-03-03T05:08:06;2.70;99.90
30678;DHT22;17437;47.188;8.896;2023-03-03T05:10:39;2.80;99.90
30678;DHT22;17437;47.188;8.896;2023-03-03T05:13:10;2.80;99.90
30678;DHT22;17437;47.188;8.896;2023-03-03T05:15:43;2.80;99.90
30678;DHT22;17437;47.188;8.896;2023-03-03T05:18:17;2.90;99.90
30678;DHT22;17437;47.188;8.896;2023-03-03T05:20:49;3.00;99.90
30678;DHT22;17437;47.188;8.896;2023-03-03T05:23:22;2.90;99.90
30678;DHT22;17437;47.188;8.896;2023-03-03T05:25:53;2.90;99.90
30678;DHT22;17437;47.188;8.896;2023-03-03T05:28:25;3.00;99.90
30678;DHT22;17437;47.188;8.896;2023-03-03T05:30:58;2.90;99.90
30678;DHT22;17437;47.188;8.896;2023-03-03T05:33:30;2.90;99.90
30678;DHT22;17437;47.188;8.896;2023-03-03T05:36:04;2.80;99.90
30678;DHT22;17437;47.188;8.896;2023-03-03T05:38:35;2.80;99.90
30678;DHT22;17437;47.188;8.896;2023-03-03T05:41:07;2.80;99.90
30678;DHT22;17437;47.188;8.896;2023-03-03T05:43:39;2.90;99.90
30678;DHT22;17437;47.188;8.896;2023-03-03T05:46:11;2.90;99.90
30678;DHT22;17437;47.188;8.896;2023-03-03T05:48:43;2.90;99.90
30678;DHT22;17437;47.188;8.896;2023-03-03T05:51:14;2.90;99.90
30678;DHT22;17437;47.188;8.896;2023-03-03T05:53:46;2.80;99.90
30678;DHT22;17437;47.188;8.896;2023-03-03T05:56:19;2.80;99.90
30678;DHT22;17437;47.188;8.896;2023-03-03T05:58:51;2.90;99.90
30678;DHT22;17437;47.188;8.896;2023-03-03T06:01:23;3.00;99.90
30678;DHT22;17437;47.188;8.896;2023-03-03T06:03:54;3.00;99.90
30678;DHT22;17437;47.188;8.896;2023-03-03T06:06:25;3.10;99.90
30678;DHT22;17437;47.188;8.896;2023-03-03T06:08:57;3.10;99.90
30678;DHT22;17437;47.188;8.896;2023-03-03T06:11:29;3.10;99.90
30678;DHT22;17437;47.188;8.896;2023-03-03T06:14:00;3.10;99.90
30678;DHT22;17437;47.188;8.896;2023-03-03T06:16:33;3.10;99.90
30678;DHT22;17437;47.188;8.896;2023-03-03T06:19:06;3.20;99.90
30678;DHT22;17437;47.188;8.896;2023-03-03T06:21:38;3.20;99.90
30678;DHT22;17437;47.188;8.896;2023-03-03T06:24:11;3.10;99.90
30678;DHT22;17437;47.188;8.896;2023-03-03T06:26:44;3.20;99.90
30678;DHT22;17437;47.188;8.896;2023-03-03T06:29:16;3.20;99.90
30678;DHT22;17437;47.188;8.896;2023-03-03T06:31:47;3.10;99.90
30678;DHT22;17437;47.188;8.896;2023-03-03T06:34:19;3.10;99.90
30678;DHT22;17437;47.188;8.896;2023-03-03T06:36:51;3.10;99.90
30678;DHT22;17437;47.188;8.896;2023-03-03T06:39:22;3.20;99.90
30678;DHT22;17437;47.188;8.896;2023-03-03T06:41:55;3.20;99.90
30678;DHT22;17437;47.188;8.896;2023-03-03T06:44:27;3.20;99.90
30678;DHT22;17437;47.188;8.896;2023-03-03T06:46:58;3.30;99.90
30678;DHT22;17437;47.188;8.896;2023-03-03T06:49:30;3.30;99.90
30678;DHT22;17437;47.188;8.896;2023-03-03T06:52:09;3.30;99.90
30678;DHT22;17437;47.188;8.896;2023-03-03T06:54:41;3.30;99.90
30678;DHT22;17437;47.188;8.896;2023-03-03T06:57:19;3.40;99.90
30678;DHT22;17437;47.188;8.896;2023-03-03T06:59:53;3.40;99.90
30678;DHT22;17437;47.188;8.896;2023-03-03T07:02:25;3.40;99.90
30678;DHT22;17437;47.188;8.896;2023-03-03T07:04:57;3.50;99.90
30678;DHT22;17437;47.188;8.896;2023-03-03T07:07:29;3.60;99.90
30678;DHT22;17437;47.188;8.896;2023-03-03T07:10:05;3.60;99.90
30678;DHT22;17437;47.188;8.896;2023-03-03T07:12:37;3.60;99.90
30678;DHT22;17437;47.188;8.896;2023-03-03T07:15:18;3.60;99.90
30678;DHT22;17437;47.188;8.896;2023-03-03T07:17:51;3.60;99.90
30678;DHT22;17437;47.188;8.896;2023-03-03T07:20:27;3.50;99.90
30678;DHT22;17437;47.188;8.896;2023-03-03T07:22:58;3.50;99.90
30678;DHT22;17437;47.188;8.896;2023-03-03T07:25:32;3.50;99.90
30678;DHT22;17437;47.188;8.896;2023-03-03T07:28:14;3.60;99.90
30678;DHT22;17437;47.188;8.896;2023-03-03T07:30:49;3.50;99.90
30678;DHT22;17437;47.188;8.896;2023-03-03T07:33:25;3.60;99.90
30678;DHT22;17437;47.188;8.896;2023-03-03T07:35:59;3.60;99.90
30678;DHT22;17437;47.188;8.896;2023-03-03T07:38:36;3.70;99.90
30678;DHT22;17437;47.188;8.896;2023-03-03T07:41:13;3.70;99.90
30678;DHT22;17437;47.188;8.896;2023-03-03T07:43:48;3.80;99.90
30678;DHT22;17437;47.188;8.896;2023-03-03T07:46:26;3.80;99.90
30678;DHT22;17437;47.188;8.896;2023-03-03T07:49:00;3.80;99.90
30678;DHT22;17437;47.188;8.896;2023-03-03T07:51:38;3.80;99.90
30678;DHT22;17437;47.188;8.896;2023-03-03T07:54:21;3.80;99.90
30678;DHT22;17437;47.188;8.896;2023-03-03T07:56:50;3.90;99.90
30678;DHT22;17437;47.188;8.896;2023-03-03T07:59:24;3.90;99.90
30678;DHT22;17437;47.188;8.896;2023-03-03T08:01:57;4.00;99.90
30678;DHT22;17437;47.188;8.896;2023-03-03T08:04:35;4.00;99.90
30678;DHT22;17437;47.188;8.896;2023-03-03T08:07:12;4.10;99.90
30678;DHT22;17437;47.188;8.896;2023-03-03T08:09:49;4.20;99.90
30678;DHT22;17437;47.188;8.896;2023-03-03T08:12:40;4.20;99.90
30678;DHT22;17437;47.188;8.896;2023-03-03T08:15:18;4.20;99.90
30678;DHT22;17437;47.188;8.896;2023-03-03T08:17:53;4.20;99.90
30678;DHT22;17437;47.188;8.896;2023-03-03T08:23:25;4.10;99.90
30678;DHT22;17437;47.188;8.896;2023-03-03T08:25:57;4.10;99.90
30678;DHT22;17437;47.188;8.896;2023-03-03T08:28:29;4.10;99.90
30678;DHT22;17437;47.188;8.896;2023-03-03T08:31:00;4.00;99.90
30678;DHT22;17437;47.188;8.896;2023-03-03T08:33:33;4.00;99.90
30678;DHT22;17437;47.188;8.896;2023-03-03T08:36:06;4.20;99.90
30678;DHT22;17437;47.188;8.896;2023-03-03T08:38:38;4.40;99.90
30678;DHT22;17437;47.188;8.896;2023-03-03T08:41:10;4.50;99.90
30678;DHT22;17437;47.188;8.896;2023-03-03T08:43:42;4.60;99.90
30678;DHT22;17437;47.188;8.896;2023-03-03T08:46:15;4.60;99.90
30678;DHT22;17437;47.188;8.896;2023-03-03T08:48:48;4.70;99.90
30678;DHT22;17437;47.188;8.896;2023-03-03T08:51:21;4.80;99.90
30678;DHT22;17437;47.188;8.896;2023-03-03T08:53:52;4.90;99.90
30678;DHT22;17437;47.188;8.896;2023-03-03T08:56:24;5.00;99.90
30678;DHT22;17437;47.188;8.896;2023-03-03T08:58:55;5.10;99.90
30678;DHT22;17437;47.188;8.896;2023-03-03T09:01:29;5.30;99.90
30678;DHT22;17437;47.188;8.896;2023-03-03T09:04:01;5.30;99.90
30678;DHT22;17437;47.188;8.896;2023-03-03T09:06:33;5.30;99.90
30678;DHT22;17437;47.188;8.896;2023-03-03T09:09:05;5.40;99.90
30678;DHT22;17437;47.188;8.896;2023-03-03T09:11:36;5.40;99.90
30678;DHT22;17437;47.188;8.896;2023-03-03T09:14:12;5.50;99.90
30678;DHT22;17437;47.188;8.896;2023-03-03T09:16:49;5.40;99.90
30678;DHT22;17437;47.188;8.896;2023-03-03T09:19:24;5.20;99.90
30678;DHT22;17437;47.188;8.896;2023-03-03T09:21:58;5.10;99.90
30678;DHT22;17437;47.188;8.896;2023-03-03T09:24:31;5.00;99.90
30678;DHT22;17437;47.188;8.896;2023-03-03T09:27:12;4.80;99.90
30678;DHT22;17437;47.188;8.896;2023-03-03T09:29:45;4.90;99.90
30678;DHT22;17437;47.188;8.896;2023-03-03T09:32:26;5.30;99.90
30678;DHT22;17437;47.188;8.896;2023-03-03T09:34:58;5.50;99.90
30678;DHT22;17437;47.188;8.896;2023-03-03T09:37:33;5.70;99.90
30678;DHT22;17437;47.188;8.896;2023-03-03T09:40:18;5.70;99.90
30678;DHT22;17437;47.188;8.896;2023-03-03T09:42:54;5.80;99.90
30678;DHT22;17437;47.188;8.896;2023-03-03T09:45:44;5.80;99.90
30678;DHT22;17437;47.188;8.896;2023-03-03T09:48:30;6.00;99.90
30678;DHT22;17437;47.188;8.896;2023-03-03T09:54:21;6.40;99.90
30678;DHT22;17437;47.188;8.896;2023-03-03T09:56:57;6.40;99.90
30678;DHT22;17437;47.188;8.896;2023-03-03T09:59:34;6.40;99.90
30678;DHT22;17437;47.188;8.896;2023-03-03T10:02:23;6.40;99.90
30678;DHT22;17437;47.188;8.896;2023-03-03T10:05:11;6.50;99.90
30678;DHT22;17437;47.188;8.896;2023-03-03T10:07:51;6.50;99.90
30678;DHT22;17437;47.188;8.896;2023-03-03T10:11:00;6.50;99.90
30678;DHT22;17437;47.188;8.896;2023-03-03T10:13:41;6.60;99.90
30678;DHT22;17437;47.188;8.896;2023-03-03T10:19:14;6.60;99.90
30678;DHT22;17437;47.188;8.896;2023-03-03T10:21:48;6.60;99.90
30678;DHT22;17437;47.188;8.896;2023-03-03T10:24:25;6.60;99.90
30678;DHT22;17437;47.188;8.896;2023-03-03T10:27:10;6.60;99.90
30678;DHT22;17437;47.188;8.896;2023-03-03T10:29:48;6.60;99.90
30678;DHT22;17437;47.188;8.896;2023-03-03T10:32:42;6.60;99.90
30678;DHT22;17437;47.188;8.896;2023-03-03T10:38:51;6.90;99.90
30678;DHT22;17437;47.188;8.896;2023-03-03T10:41:36;7.00;99.90
30678;DHT22;17437;47.188;8.896;2023-03-03T10:44:16;7.00;99.90
30678;DHT22;17437;47.188;8.896;2023-03-03T10:47:16;7.10;99.90
30678;DHT22;17437;47.188;8.896;2023-03-03T10:49:50;7.00;99.90
30678;DHT22;17437;47.188;8.896;2023-03-03T10:52:29;7.00;99.90
30678;DHT22;17437;47.188;8.896;2023-03-03T10:55:13;7.30;99.90
30678;DHT22;17437;47.188;8.896;2023-03-03T10:57:50;7.40;99.90
30678;DHT22;17437;47.188;8.896;2023-03-03T11:00:25;7.60;99.90
30678;DHT22;17437;47.188;8.896;2023-03-03T11:03:13;7.80;99.90
30678;DHT22;17437;47.188;8.896;2023-03-03T11:05:48;7.70;99.90
30678;DHT22;17437;47.188;8.896;2023-03-03T11:08:25;7.80;99.90
30678;DHT22;17437;47.188;8.896;2023-03-03T11:10:59;7.80;99.90
30678;DHT22;17437;47.188;8.896;2023-03-03T11:13:35;7.80;99.90
30678;DHT22;17437;47.188;8.896;2023-03-03T11:16:20;7.80;99.90
30678;DHT22;17437;47.188;8.896;2023-03-03T11:18:59;7.70;99.90
30678;DHT22;17437;47.188;8.896;2023-03-03T11:21:36;7.60;99.90
30678;DHT22;17437;47.188;8.896;2023-03-03T11:30:16;7.50;99.90
30678;DHT22;17437;47.188;8.896;2023-03-03T11:32:52;7.70;99.90
30678;DHT22;17437;47.188;8.896;2023-03-03T11:35:26;7.60;99.90
30678;DHT22;17437;47.188;8.896;2023-03-03T11:38:05;7.40;99.90
30678;DHT22;17437;47.188;8.896;2023-03-03T11:40:43;7.40;99.90
30678;DHT22;17437;47.188;8.896;2023-03-03T11:43:17;7.40;99.90
30678;DHT22;17437;47.188;8.896;2023-03-03T11:45:53;7.40;99.90
30678;DHT22;17437;47.188;8.896;2023-03-03T11:48:35;7.40;99.90
30678;DHT22;17437;47.188;8.896;2023-03-03T11:51:11;7.60;99.90
30678;DHT22;17437;47.188;8.896;2023-03-03T11:53:52;7.40;99.90
30678;DHT22;17437;47.188;8.896;2023-03-03T11:56:26;7.40;99.90
30678;DHT22;17437;47.188;8.896;2023-03-03T11:59:06;7.30;99.90
30678;DHT22;17437;47.188;8.896;2023-03-03T12:01:42;7.50;99.90
30678;DHT22;17437;47.188;8.896;2023-03-03T12:04:18;7.60;99.90
30678;DHT22;17437;47.188;8.896;2023-03-03T12:06:59;7.80;99.90
30678;DHT22;17437;47.188;8.896;2023-03-03T12:09:39;7.80;99.90
30678;DHT22;17437;47.188;8.896;2023-03-03T12:12:15;7.80;99.90
30678;DHT22;17437;47.188;8.896;2023-03-03T12:15:01;7.80;99.90
30678;DHT22;17437;47.188;8.896;2023-03-03T12:17:42;7.90;99.90
30678;DHT22;17437;47.188;8.896;2023-03-03T12:20:17;7.90;99.90
30678;DHT22;17437;47.188;8.896;2023-03-03T12:22:57;7.70;99.90
30678;DHT22;17437;47.188;8.896;2023-03-03T12:25:36;7.90;99.90
30678;DHT22;17437;47.188;8.896;2023-03-03T12:28:14;7.90;99.90
30678;DHT22;17437;47.188;8.896;2023-03-03T12:33:53;8.60;99.90
30678;DHT22;17437;47.188;8.896;2023-03-03T12:36:33;8.60;99.90
30678;DHT22;17437;47.188;8.896;2023-03-03T12:39:09;8.10;99.90
30678;DHT22;17437;47.188;8.896;2023-03-03T12:41:44;8.30;99.90
30678;DHT22;17437;47.188;8.896;2023-03-03T12:44:20;8.70;99.90
30678;DHT22;17437;47.188;8.896;2023-03-03T12:46:56;9.10;99.90
30678;DHT22;17437;47.188;8.896;2023-03-03T12:49:33;9.30;99.90
30678;DHT22;17437;47.188;8.896;2023-03-03T12:52:09;9.20;99.90
30678;DHT22;17437;47.188;8.896;2023-03-03T12:54:49;9.10;99.90
30678;DHT22;17437;47.188;8.896;2023-03-03T12:57:26;9.20;99.90
30678;DHT22;17437;47.188;8.896;2023-03-03T13:00:13;9.00;99.90
30678;DHT22;17437;47.188;8.896;2023-03-03T13:02:51;8.60;99.90
30678;DHT22;17437;47.188;8.896;2023-03-03T13:05:26;8.40;99.90
30678;DHT22;17437;47.188;8.896;2023-03-03T13:11:16;8.20;99.90
30678;DHT22;17437;47.188;8.896;2023-03-03T13:13:50;8.20;99.90
30678;DHT22;17437;47.188;8.896;2023-03-03T13:16:26;8.00;99.90
30678;DHT22;17437;47.188;8.896;2023-03-03T13:19:01;7.70;99.90
30678;DHT22;17437;47.188;8.896;2023-03-03T13:21:37;7.60;99.90
30678;DHT22;17437;47.188;8.896;2023-03-03T13:24:25;7.40;99.90
30678;DHT22;17437;47.188;8.896;2023-03-03T13:27:13;7.30;99.90
30678;DHT22;17437;47.188;8.896;2023-03-03T13:29:50;7.30;99.90
30678;DHT22;17437;47.188;8.896;2023-03-03T13:32:23;7.40;99.90
30678;DHT22;17437;47.188;8.896;2023-03-03T13:35:02;7.50;99.90
30678;DHT22;17437;47.188;8.896;2023-03-03T13:37:38;7.60;99.90
30678;DHT22;17437;47.188;8.896;2023-03-03T13:40:16;7.70;99.90
30678;DHT22;17437;47.188;8.896;2023-03-03T13:42:51;7.80;99.90
30678;DHT22;17437;47.188;8.896;2023-03-03T13:45:27;7.90;99.90
30678;DHT22;17437;47.188;8.896;2023-03-03T13:48:05;7.90;99.90
30678;DHT22;17437;47.188;8.896;2023-03-03T13:50:40;8.00;99.90
30678;DHT22;17437;47.188;8.896;2023-03-03T13:53:28;7.70;99.90
30678;DHT22;17437;47.188;8.896;2023-03-03T13:56:06;7.70;99.90
30678;DHT22;17437;47.188;8.896;2023-03-03T13:58:41;7.90;99.90
30678;DHT22;17437;47.188;8.896;2023-03-03T14:01:16;8.00;99.90
30678;DHT22;17437;47.188;8.896;2023-03-03T14:03:59;8.10;99.90
30678;DHT22;17437;47.188;8.896;2023-03-03T14:06:32;8.10;99.90
30678;DHT22;17437;47.188;8.896;2023-03-03T14:09:15;8.30;99.90
30678;DHT22;17437;47.188;8.896;2023-03-03T14:11:48;8.20;99.90
30678;DHT22;17437;47.188;8.896;2023-03-03T14:14:33;8.30;99.90
30678;DHT22;17437;47.188;8.896;2023-03-03T14:17:10;8.20;99.90
30678;DHT22;17437;47.188;8.896;2023-03-03T14:19:43;8.20;99.90
30678;DHT22;17437;47.188;8.896;2023-03-03T14:22:20;8.20;99.90
30678;DHT22;17437;47.188;8.896;2023-03-03T14:25:04;8.30;99.90
30678;DHT22;17437;47.188;8.896;2023-03-03T14:27:39;8.30;99.90
30678;DHT22;17437;47.188;8.896;2023-03-03T14:30:42;8.20;99.90
30678;DHT22;17437;47.188;8.896;2023-03-03T14:33:19;8.20;99.90
30678;DHT22;17437;47.188;8.896;2023-03-03T14:36:03;8.10;99.90
30678;DHT22;17437;47.188;8.896;2023-03-03T14:38:40;7.80;99.90
30678;DHT22;17437;47.188;8.896;2023-03-03T14:41:17;7.80;99.90
30678;DHT22;17437;47.188;8.896;2023-03-03T14:44:00;7.70;99.90
30678;DHT22;17437;47.188;8.896;2023-03-03T14:46:37;7.60;99.90
30678;DHT22;17437;47.188;8.896;2023-03-03T14:49:15;7.70;99.90
30678;DHT22;17437;47.188;8.896;2023-03-03T14:51:49;7.80;99.90
30678;DHT22;17437;47.188;8.896;2023-03-03T14:54:24;7.80;99.90
30678;DHT22;17437;47.188;8.896;2023-03-03T14:57:04;7.80;99.90
30678;DHT22;17437;47.188;8.896;2023-03-03T14:59:36;7.90;99.90
30678;DHT22;17437;47.188;8.896;2023-03-03T15:05:21;7.90;99.90
30678;DHT22;17437;47.188;8.896;2023-03-03T15:07:55;7.90;99.90
30678;DHT22;17437;47.188;8.896;2023-03-03T15:10:33;7.90;99.90
30678;DHT22;17437;47.188;8.896;2023-03-03T15:13:26;7.80;99.90
30678;DHT22;17437;47.188;8.896;2023-03-03T15:16:04;7.80;99.90
30678;DHT22;17437;47.188;8.896;2023-03-03T15:21:31;7.90;99.90
30678;DHT22;17437;47.188;8.896;2023-03-03T15:24:05;7.80;99.90
30678;DHT22;17437;47.188;8.896;2023-03-03T15:26:42;7.80;99.90
30678;DHT22;17437;47.188;8.896;2023-03-03T15:29:20;7.70;99.90
30678;DHT22;17437;47.188;8.896;2023-03-03T15:31:53;7.70;99.90
30678;DHT22;17437;47.188;8.896;2023-03-03T15:34:32;7.70;99.90
30678;DHT22;17437;47.188;8.896;2023-03-03T15:37:14;7.70;99.90
30678;DHT22;17437;47.188;8.896;2023-03-03T15:39:48;7.70;99.90
30678;DHT22;17437;47.188;8.896;2023-03-03T15:42:26;7.70;99.90
30678;DHT22;17437;47.188;8.896;2023-03-03T15:45:00;7.60;99.90
30678;DHT22;17437;47.188;8.896;2023-03-03T15:47:42;7.60;99.90
30678;DHT22;17437;47.188;8.896;2023-03-03T15:50:25;7.60;99.90
30678;DHT22;17437;47.188;8.896;2023-03-03T15:53:02;7.50;99.90
30678;DHT22;17437;47.188;8.896;2023-03-03T15:55:46;7.40;99.90
30678;DHT22;17437;47.188;8.896;2023-03-03T15:58:32;7.50;99.90
30678;DHT22;17437;47.188;8.896;2023-03-03T16:01:12;7.40;99.90
30678;DHT22;17437;47.188;8.896;2023-03-03T16:03:48;7.40;99.90
30678;DHT22;17437;47.188;8.896;2023-03-03T16:06:23;7.30;99.90
30678;DHT22;17437;47.188;8.896;2023-03-03T16:08:57;7.40;99.90
30678;DHT22;17437;47.188;8.896;2023-03-03T16:11:32;7.40;99.90
30678;DHT22;17437;47.188;8.896;2023-03-03T16:14:15;7.40;99.90
30678;DHT22;17437;47.188;8.896;2023-03-03T16:16:49;7.40;99.90
30678;DHT22;17437;47.188;8.896;2023-03-03T16:19:27;7.30;99.90
30678;DHT22;17437;47.188;8.896;2023-03-03T16:25:16;7.20;99.90
30678;DHT22;17437;47.188;8.896;2023-03-03T16:27:50;7.10;99.90
30678;DHT22;17437;47.188;8.896;2023-03-03T16:30:31;7.10;99.90
30678;DHT22;17437;47.188;8.896;2023-03-03T16:33:07;7.00;99.90
30678;DHT22;17437;47.188;8.896;2023-03-03T16:35:41;6.90;99.90
30678;DHT22;17437;47.188;8.896;2023-03-03T16:38:16;7.00;99.90
30678;DHT22;17437;47.188;8.896;2023-03-03T16:40:50;6.90;99.90
30678;DHT22;17437;47.188;8.896;2023-03-03T16:43:26;6.80;99.90
30678;DHT22;17437;47.188;8.896;2023-03-03T16:46:01;6.80;99.90
30678;DHT22;17437;47.188;8.896;2023-03-03T16:48:40;6.60;99.90
30678;DHT22;17437;47.188;8.896;2023-03-03T16:51:22;6.50;99.90
30678;DHT22;17437;47.188;8.896;2023-03-03T16:54:02;6.50;99.90
30678;DHT22;17437;47.188;8.896;2023-03-03T16:56:42;6.40;99.90
30678;DHT22;17437;47.188;8.896;2023-03-03T16:59:33;6.40;99.90
30678;DHT22;17437;47.188;8.896;2023-03-03T17:02:33;6.40;99.90
30678;DHT22;17437;47.188;8.896;2023-03-03T17:05:12;6.40;99.90
30678;DHT22;17437;47.188;8.896;2023-03-03T17:07:47;6.50;99.90
30678;DHT22;17437;47.188;8.896;2023-03-03T17:10:25;6.50;99.90
30678;DHT22;17437;47.188;8.896;2023-03-03T17:13:08;6.40;99.90
30678;DHT22;17437;47.188;8.896;2023-03-03T17:15:45;6.40;99.90